Jamestown, Tennessee
Current Conditions -  °F | °C
As of 5:56 PM on Sunday 25 Jan 2015 (Local Time) from KEKQ Reporting Station
Overcast Overcast  
Wind Chill: 50°   Ceiling: 4600
Heat Index: 50°   Visibility: 10mi
Dew Point: 37°   Wind: 14mph
Humidity: 61%   Direction: 200°SSW
Pressure: 29.69"   Gusts: NA
Location:  36.43°N, 84.93°W
Report Text: KEKQ 252356Z AUTO 20012KT 10SM OVC046 10/03 A2969 RMK AO2 53006 T01000027 10122 20094 SLP057
Loading
Personal Weather Stations






























Interactive Weather Map New forecast layout! Learn more

10-Day Weather Forecast

Advertisements
Track Severe Weather on mobile